<?xml version="1.0" encoding="UTF-8" standalone="no" ?>
<gpx xmlns="http://www.topografix.com/GPX/1/1" xmlns:xsi="http://www.w3.org/2001/XMLSchema-instance" xsi:schemaLocation="http://www.topografix.com/GPX/1/1 http://www.topografix.com/GPX/1/1/gpx.xsd" version="1.1" creator="VisuGPX - https://www.visugpx.com">
  <metadata>
    <name>13730115-Létra Joncin Létra</name>
  </metadata>
  <trk>
    <name><![CDATA[13730115-Létra Joncin Létra]]></name>
    <trkseg>
      <trkpt lat="45.95947" lon="4.56679">
        <ele>492</ele>
        <time>2021-09-20T14:54:59Z</time>
      </trkpt>
      <trkpt lat="45.961" lon="4.56516">
        <ele>506</ele>
        <time>2021-09-20T14:59:13Z</time>
      </trkpt>
      <trkpt lat="45.9612" lon="4.56452">
        <ele>498</ele>
        <time>2021-09-20T15:00:18Z</time>
      </trkpt>
      <trkpt lat="45.96177" lon="4.56366">
        <ele>498</ele>
        <time>2021-09-20T15:02:08Z</time>
      </trkpt>
      <trkpt lat="45.96141" lon="4.56224">
        <ele>489</ele>
        <time>2021-09-20T15:04:29Z</time>
      </trkpt>
      <trkpt lat="45.96028" lon="4.56087">
        <ele>487</ele>
        <time>2021-09-20T15:07:46Z</time>
      </trkpt>
      <trkpt lat="45.96007" lon="4.56018">
        <ele>485</ele>
        <time>2021-09-20T15:08:56Z</time>
      </trkpt>
      <trkpt lat="45.96111" lon="4.55967">
        <ele>496</ele>
        <time>2021-09-20T15:11:22Z</time>
      </trkpt>
      <trkpt lat="45.96231" lon="4.55855">
        <ele>494</ele>
        <time>2021-09-20T15:14:33Z</time>
      </trkpt>
      <trkpt lat="45.9632" lon="4.55782">
        <ele>491</ele>
        <time>2021-09-20T15:16:50Z</time>
      </trkpt>
      <trkpt lat="45.96356" lon="4.55576">
        <ele>485</ele>
        <time>2021-09-20T15:20:07Z</time>
      </trkpt>
      <trkpt lat="45.96472" lon="4.55546">
        <ele>485</ele>
        <time>2021-09-20T15:22:44Z</time>
      </trkpt>
      <trkpt lat="45.96592" lon="4.55619">
        <ele>481</ele>
        <time>2021-09-20T15:25:38Z</time>
      </trkpt>
      <trkpt lat="45.96711" lon="4.55594">
        <ele>481</ele>
        <time>2021-09-20T15:28:19Z</time>
      </trkpt>
      <trkpt lat="45.96786" lon="4.55328">
        <ele>438</ele>
        <time>2021-09-20T15:32:45Z</time>
      </trkpt>
      <trkpt lat="45.97084" lon="4.55027">
        <ele>386</ele>
        <time>2021-09-20T15:40:51Z</time>
      </trkpt>
      <trkpt lat="45.97403" lon="4.55272">
        <ele>412</ele>
        <time>2021-09-20T15:48:53Z</time>
      </trkpt>
      <trkpt lat="45.97525" lon="4.55491">
        <ele>431</ele>
        <time>2021-09-20T15:53:14Z</time>
      </trkpt>
      <trkpt lat="45.97743" lon="4.55375">
        <ele>431</ele>
        <time>2021-09-20T15:58:24Z</time>
      </trkpt>
      <trkpt lat="45.97904" lon="4.55478">
        <ele>450</ele>
        <time>2021-09-20T16:02:19Z</time>
      </trkpt>
      <trkpt lat="45.98059" lon="4.55413">
        <ele>449</ele>
        <time>2021-09-20T16:05:54Z</time>
      </trkpt>
      <trkpt lat="45.9828" lon="4.55263">
        <ele>469</ele>
        <time>2021-09-20T16:11:20Z</time>
      </trkpt>
      <trkpt lat="45.98357" lon="4.55147">
        <ele>473</ele>
        <time>2021-09-20T16:13:49Z</time>
      </trkpt>
      <trkpt lat="45.9856" lon="4.55225">
        <ele>491</ele>
        <time>2021-09-20T16:18:30Z</time>
      </trkpt>
      <trkpt lat="45.98685" lon="4.55186">
        <ele>503</ele>
        <time>2021-09-20T16:21:20Z</time>
      </trkpt>
      <trkpt lat="45.98951" lon="4.54997">
        <ele>534</ele>
        <time>2021-09-20T16:27:56Z</time>
      </trkpt>
      <trkpt lat="45.98757" lon="4.54954">
        <ele>551</ele>
        <time>2021-09-20T16:32:18Z</time>
      </trkpt>
      <trkpt lat="45.98685" lon="4.54735">
        <ele>593</ele>
        <time>2021-09-20T16:36:03Z</time>
      </trkpt>
      <trkpt lat="45.9856" lon="4.54791">
        <ele>591</ele>
        <time>2021-09-20T16:38:57Z</time>
      </trkpt>
      <trkpt lat="45.98411" lon="4.54675">
        <ele>596</ele>
        <time>2021-09-20T16:42:43Z</time>
      </trkpt>
      <trkpt lat="45.98563" lon="4.54718">
        <ele>610</ele>
        <time>2021-09-20T16:46:10Z</time>
      </trkpt>
      <trkpt lat="45.98694" lon="4.54568">
        <ele>642</ele>
        <time>2021-09-20T16:49:54Z</time>
      </trkpt>
      <trkpt lat="45.98978" lon="4.54422">
        <ele>661</ele>
        <time>2021-09-20T16:56:36Z</time>
      </trkpt>
      <trkpt lat="45.99028" lon="4.54268">
        <ele>652</ele>
        <time>2021-09-20T16:59:14Z</time>
      </trkpt>
      <trkpt lat="45.98948" lon="4.54268">
        <ele>650</ele>
        <time>2021-09-20T17:01:00Z</time>
      </trkpt>
      <trkpt lat="45.98861" lon="4.54117">
        <ele>614</ele>
        <time>2021-09-20T17:04:02Z</time>
      </trkpt>
      <trkpt lat="45.98644" lon="4.54027">
        <ele>601</ele>
        <time>2021-09-20T17:09:04Z</time>
      </trkpt>
      <trkpt lat="45.98778" lon="4.54014">
        <ele>583</ele>
        <time>2021-09-20T17:12:03Z</time>
      </trkpt>
      <trkpt lat="45.98978" lon="4.54049">
        <ele>588</ele>
        <time>2021-09-20T17:16:32Z</time>
      </trkpt>
      <trkpt lat="45.99037" lon="4.53924">
        <ele>576</ele>
        <time>2021-09-20T17:18:52Z</time>
      </trkpt>
      <trkpt lat="45.99338" lon="4.541">
        <ele>609</ele>
        <time>2021-09-20T17:26:05Z</time>
      </trkpt>
      <trkpt lat="45.99514" lon="4.53924">
        <ele>595</ele>
        <time>2021-09-20T17:30:51Z</time>
      </trkpt>
      <trkpt lat="45.99574" lon="4.54104">
        <ele>601</ele>
        <time>2021-09-20T17:33:56Z</time>
      </trkpt>
      <trkpt lat="45.99827" lon="4.53911">
        <ele>587</ele>
        <time>2021-09-20T17:40:18Z</time>
      </trkpt>
      <trkpt lat="45.99938" lon="4.54079">
        <ele>623</ele>
        <time>2021-09-20T17:43:53Z</time>
      </trkpt>
      <trkpt lat="46.00003" lon="4.54259">
        <ele>628</ele>
        <time>2021-09-20T17:47:01Z</time>
      </trkpt>
      <trkpt lat="46.00188" lon="4.54126">
        <ele>630</ele>
        <time>2021-09-20T17:51:37Z</time>
      </trkpt>
      <trkpt lat="46.00108" lon="4.54418">
        <ele>670</ele>
        <time>2021-09-20T17:56:28Z</time>
      </trkpt>
      <trkpt lat="45.99944" lon="4.54534">
        <ele>692</ele>
        <time>2021-09-20T18:00:32Z</time>
      </trkpt>
      <trkpt lat="45.99866" lon="4.54559">
        <ele>698</ele>
        <time>2021-09-20T18:02:19Z</time>
      </trkpt>
      <trkpt lat="45.99777" lon="4.55027">
        <ele>663</ele>
        <time>2021-09-20T18:09:49Z</time>
      </trkpt>
      <trkpt lat="45.99693" lon="4.55263">
        <ele>662</ele>
        <time>2021-09-20T18:13:55Z</time>
      </trkpt>
      <trkpt lat="45.99628" lon="4.55319">
        <ele>659</ele>
        <time>2021-09-20T18:15:36Z</time>
      </trkpt>
      <trkpt lat="45.99535" lon="4.55319">
        <ele>645</ele>
        <time>2021-09-20T18:17:40Z</time>
      </trkpt>
      <trkpt lat="45.99443" lon="4.55602">
        <ele>654</ele>
        <time>2021-09-20T18:22:29Z</time>
      </trkpt>
      <trkpt lat="45.99425" lon="4.55735">
        <ele>667</ele>
        <time>2021-09-20T18:24:35Z</time>
      </trkpt>
      <trkpt lat="45.99329" lon="4.55791">
        <ele>668</ele>
        <time>2021-09-20T18:26:53Z</time>
      </trkpt>
      <trkpt lat="45.99315" lon="4.5592">
        <ele>678</ele>
        <time>2021-09-20T18:28:54Z</time>
      </trkpt>
      <trkpt lat="45.9913" lon="4.55911">
        <ele>674</ele>
        <time>2021-09-20T18:33:01Z</time>
      </trkpt>
      <trkpt lat="45.9904" lon="4.56061">
        <ele>664</ele>
        <time>2021-09-20T18:36:05Z</time>
      </trkpt>
      <trkpt lat="45.98879" lon="4.56147">
        <ele>650</ele>
        <time>2021-09-20T18:39:54Z</time>
      </trkpt>
      <trkpt lat="45.98724" lon="4.55915">
        <ele>619</ele>
        <time>2021-09-20T18:44:53Z</time>
      </trkpt>
      <trkpt lat="45.9859" lon="4.55911">
        <ele>612</ele>
        <time>2021-09-20T18:47:51Z</time>
      </trkpt>
      <trkpt lat="45.98524" lon="4.56031">
        <ele>620</ele>
        <time>2021-09-20T18:50:13Z</time>
      </trkpt>
      <trkpt lat="45.98396" lon="4.55911">
        <ele>588</ele>
        <time>2021-09-20T18:53:37Z</time>
      </trkpt>
      <trkpt lat="45.98342" lon="4.56001">
        <ele>596</ele>
        <time>2021-09-20T18:55:28Z</time>
      </trkpt>
      <trkpt lat="45.98161" lon="4.55928">
        <ele>588</ele>
        <time>2021-09-20T18:59:38Z</time>
      </trkpt>
      <trkpt lat="45.98056" lon="4.5604">
        <ele>588</ele>
        <time>2021-09-20T19:02:33Z</time>
      </trkpt>
      <trkpt lat="45.9802" lon="4.56147">
        <ele>586</ele>
        <time>2021-09-20T19:04:23Z</time>
      </trkpt>
      <trkpt lat="45.97907" lon="4.56233">
        <ele>581</ele>
        <time>2021-09-20T19:07:14Z</time>
      </trkpt>
      <trkpt lat="45.97797" lon="4.5631">
        <ele>582</ele>
        <time>2021-09-20T19:09:57Z</time>
      </trkpt>
      <trkpt lat="45.97648" lon="4.56242">
        <ele>569</ele>
        <time>2021-09-20T19:13:25Z</time>
      </trkpt>
      <trkpt lat="45.97406" lon="4.56349">
        <ele>574</ele>
        <time>2021-09-20T19:19:03Z</time>
      </trkpt>
      <trkpt lat="45.97197" lon="4.56413">
        <ele>559</ele>
        <time>2021-09-20T19:23:48Z</time>
      </trkpt>
      <trkpt lat="45.97036" lon="4.56426">
        <ele>551</ele>
        <time>2021-09-20T19:27:24Z</time>
      </trkpt>
      <trkpt lat="45.96809" lon="4.5634">
        <ele>554</ele>
        <time>2021-09-20T19:32:37Z</time>
      </trkpt>
      <trkpt lat="45.9669" lon="4.56186">
        <ele>562</ele>
        <time>2021-09-20T19:36:10Z</time>
      </trkpt>
      <trkpt lat="45.96622" lon="4.56323">
        <ele>557</ele>
        <time>2021-09-20T19:38:47Z</time>
      </trkpt>
      <trkpt lat="45.96496" lon="4.56246">
        <ele>552</ele>
        <time>2021-09-20T19:41:49Z</time>
      </trkpt>
      <trkpt lat="45.9635" lon="4.5634">
        <ele>539</ele>
        <time>2021-09-20T19:45:23Z</time>
      </trkpt>
      <trkpt lat="45.9629" lon="4.5637">
        <ele>529</ele>
        <time>2021-09-20T19:46:47Z</time>
      </trkpt>
      <trkpt lat="45.96282" lon="4.56555">
        <ele>523</ele>
        <time>2021-09-20T19:49:39Z</time>
      </trkpt>
      <trkpt lat="45.96201" lon="4.56486">
        <ele>514</ele>
        <time>2021-09-20T19:51:45Z</time>
      </trkpt>
      <trkpt lat="45.96076" lon="4.56542">
        <ele>504</ele>
        <time>2021-09-20T19:54:40Z</time>
      </trkpt>
      <trkpt lat="45.95947" lon="4.56679">
        <ele>492</ele>
        <time>2021-09-20T19:58:14Z</time>
      </trkpt>
    </trkseg>
  </trk>
</gpx>